Time;durP1;ratioP1;P1;durP2;ratioP2;P2;SDS_P1;SDS_P2;PMS_P1;PMS_P2;Temp;Humidity;BMP_temperature;BMP_pressure;BME280_temperature;BME280_humidity;BME280_pressure;Samples;Min_cycle;Max_cycle;Signal;HPM_P1;HPM_P2
2022/11/28 15:03:43;;;;;;;18.92;9.98;;;7.80;93.80;;;;;;5070281;28;20248;-52
2022/11/28 15:06:23;;;;;;;23.55;12.20;;;7.80;94.00;;;;;;5070256;28;20115;-50
2022/11/28 15:09:03;;;;;;;21.27;10.40;;;7.80;93.90;;;;;;5070153;28;20437;-54
2022/11/28 15:12:00;;;;;;;23.23;12.65;;;7.90;94.00;;;;;;5070325;28;20381;-51
2022/11/28 15:14:29;;;;;;;18.33;11.52;;;7.90;94.00;;;;;;5070181;28;20354;-50
2022/11/28 15:17:09;;;;;;;19.63;11.13;;;8.00;94.10;;;;;;5070002;28;20390;-50
2022/11/28 15:19:48;;;;;;;20.58;11.07;;;7.90;94.00;;;;;;5069963;28;20017;-51
2022/11/28 15:22:29;;;;;;;20.40;11.90;;;8.00;93.90;;;;;;5069727;28;20039;-51
2022/11/28 15:24:55;;;;;;;26.80;12.73;;;8.00;94.00;;;;;;5069963;28;20481;-52
2022/11/28 15:27:26;;;;;;;22.05;11.27;;;8.00;93.80;;;;;;5070050;28;20029;-51
2022/11/28 15:29:55;;;;;;;19.98;10.65;;;8.10;93.80;;;;;;5069799;28;20025;-50
2022/11/28 15:32:21;;;;;;;19.65;10.65;;;8.00;93.70;;;;;;5069604;28;20048;-50
2022/11/28 15:35:04;;;;;;;15.32;10.00;;;8.10;93.80;;;;;;5069288;28;20103;-50
2022/11/28 15:37:33;;;;;;;21.13;9.95;;;8.10;93.60;;;;;;5051457;28;20071;-51
2022/11/28 15:40:03;;;;;;;13.65;8.88;;;8.10;93.60;;;;;;5060360;28;20020;-53
2022/11/28 15:42:31;;;;;;;17.17;9.55;;;8.00;93.60;;;;;;5069854;28;20062;-50
2022/11/28 15:45:31;;;;;;;19.35;10.70;;;8.10;93.60;;;;;;5069793;28;20024;-49
2022/11/28 15:47:57;;;;;;;14.82;9.43;;;8.10;93.60;;;;;;5055566;28;20119;-52
2022/11/28 15:50:26;;;;;;;34.78;24.73;;;8.20;93.40;;;;;;5069374;28;20128;-51
2022/11/28 15:52:55;;;;;;;17.15;9.55;;;8.20;93.40;;;;;;5069414;28;20017;-49
2022/11/28 15:55:21;;;;;;;19.33;10.55;;;8.20;93.40;;;;;;5069455;28;20354;-51
2022/11/28 15:57:46;;;;;;;20.10;10.80;;;8.20;93.30;;;;;;5069412;28;20023;-49
2022/11/28 16:00:14;;;;;;;20.25;11.35;;;8.30;93.30;;;;;;5069461;28;20020;-50
2022/11/28 16:02:41;;;;;;;17.17;10.90;;;8.30;93.20;;;;;;5085790;28;20102;-51
2022/11/28 16:05:21;;;;;;;14.95;9.52;;;8.30;93.00;;;;;;5089297;28;20020;-54
2022/11/28 16:07:49;;;;;;;17.52;10.45;;;8.20;93.20;;;;;;5089305;28;20036;-49
2022/11/28 16:10:36;;;;;;;19.77;10.07;;;8.30;93.10;;;;;;5089920;28;20025;-51
2022/11/28 16:13:10;;;;;;;17.45;9.65;;;8.30;93.00;;;;;;5084022;28;20025;-53
2022/11/28 16:15:37;;;;;;;13.18;9.45;;;8.30;93.00;;;;;;5075819;28;20110;-49
2022/11/28 16:18:03;;;;;;;12.13;9.30;;;8.40;92.90;;;;;;5075785;28;20040;-51
2022/11/28 16:20:35;;;;;;;13.70;9.23;;;8.40;92.80;;;;;;5075463;28;20024;-50
2022/11/28 16:23:08;;;;;;;15.68;8.80;;;8.40;92.90;;;;;;5075682;28;20024;-50
2022/11/28 16:25:33;;;;;;;14.52;9.52;;;8.50;92.60;;;;;;5075361;28;20021;-51
2022/11/28 16:27:59;;;;;;;13.95;10.05;;;8.40;92.30;;;;;;5075716;28;20095;-50
2022/11/28 16:30:37;;;;;;;13.25;9.60;;;8.30;92.50;;;;;;5075719;28;20054;-48
2022/11/28 16:33:36;;;;;;;17.65;9.07;;;8.30;92.60;;;;;;5075860;28;20064;-51
2022/11/28 16:36:37;;;;;;;14.52;9.43;;;8.30;92.80;;;;;;5075413;28;20071;-50
2022/11/28 16:39:09;;;;;;;13.75;9.82;;;8.30;92.70;;;;;;5075452;28;20115;-53
2022/11/28 16:41:35;;;;;;;20.05;13.10;;;8.30;92.80;;;;;;5075116;28;20024;-49
2022/11/28 16:44:10;;;;;;;15.95;9.48;;;8.40;92.90;;;;;;5075200;28;20024;-49
2022/11/28 16:46:40;;;;;;;20.40;12.20;;;8.40;92.90;;;;;;5075268;28;20376;-48
2022/11/28 16:49:16;;;;;;;19.73;11.85;;;8.40;92.90;;;;;;5075342;28;20024;-54
2022/11/28 16:51:42;;;;;;;15.70;10.75;;;8.40;92.80;;;;;;5075440;28;20029;-50
2022/11/28 16:54:28;;;;;;;17.60;10.95;;;8.40;92.90;;;;;;5075175;28;20028;-53
2022/11/28 16:57:10;;;;;;;22.77;12.00;;;8.40;92.90;;;;;;5075454;28;20538;-51
2022/11/28 16:59:36;;;;;;;20.75;11.48;;;8.50;92.90;;;;;;5076142;28;20025;-49
2022/11/28 17:02:02;;;;;;;15.95;11.38;;;8.40;92.80;;;;;;5074567;28;20051;-51
2022/11/28 17:04:29;;;;;;;17.25;10.32;;;8.40;93.00;;;;;;5075347;28;20052;-49
2022/11/28 17:07:04;;;;;;;18.33;11.32;;;8.30;92.80;;;;;;5056951;28;20029;-51
2022/11/28 17:09:32;;;;;;;17.33;10.60;;;8.30;93.10;;;;;;5075225;28;20366;-51
2022/11/28 17:12:09;;;;;;;20.33;11.00;;;8.40;93.10;;;;;;5074718;28;20028;-50
2022/11/28 17:14:36;;;;;;;15.45;9.75;;;8.40;93.20;;;;;;5074588;28;20036;-52
2022/11/28 17:17:10;;;;;;;15.13;9.45;;;8.30;93.10;;;;;;5074746;28;20028;-51
2022/11/28 17:19:36;;;;;;;16.13;10.50;;;8.40;93.30;;;;;;5074806;28;20036;-52
2022/11/28 17:22:02;;;;;;;19.13;10.77;;;8.40;93.20;;;;;;5074607;28;20025;-52
2022/11/28 17:24:32;;;;;;;19.73;11.13;;;8.30;93.30;;;;;;5073760;28;20029;-51
2022/11/28 17:26:58;;;;;;;15.27;9.98;;;8.30;93.30;;;;;;5074749;28;20024;-52
2022/11/28 17:29:27;;;;;;;14.77;10.65;;;8.30;93.40;;;;;;5075245;28;20483;-52
2022/11/28 17:31:56;;;;;;;17.58;10.85;;;8.40;93.50;;;;;;5074519;28;20024;-62
2022/11/28 17:34:29;;;;;;;17.80;11.82;;;8.40;93.50;;;;;;5074637;28;20032;-63
2022/11/28 17:36:55;;;;;;;18.13;11.18;;;8.40;93.50;;;;;;5075290;28;20047;-62
2022/11/28 17:39:20;;;;;;;21.58;11.82;;;8.40;93.60;;;;;;5074141;28;20111;-64
2022/11/28 17:41:47;;;;;;;28.10;16.50;;;8.30;93.60;;;;;;5056262;28;20046;-63
2022/11/28 17:44:22;;;;;;;20.20;12.88;;;8.40;93.60;;;;;;5074030;28;20017;-63
2022/11/28 17:46:50;;;;;;;15.80;10.70;;;8.50;93.60;;;;;;5074254;28;20111;-63
2022/11/28 17:49:16;;;;;;;14.18;11.38;;;8.40;93.60;;;;;;5040162;28;20055;-63
2022/11/28 17:51:42;;;;;;;28.80;12.85;;;8.40;93.60;;;;;;5055827;28;20032;-61
2022/11/28 17:54:11;;;;;;;14.85;10.50;;;8.40;93.70;;;;;;5074117;28;20036;-61
2022/11/28 17:56:36;;;;;;;17.38;11.32;;;8.40;93.70;;;;;;5057033;28;20401;-63
2022/11/28 17:59:03;;;;;;;15.80;10.55;;;8.50;93.80;;;;;;5074006;28;20107;-63
2022/11/28 18:01:30;;;;;;;20.27;11.88;;;8.40;93.60;;;;;;5052540;28;20127;-62
2022/11/28 18:03:56;;;;;;;19.00;11.25;;;8.50;93.70;;;;;;5054259;28;20442;-60
2022/11/28 18:06:22;;;;;;;20.38;10.43;;;8.50;93.70;;;;;;5055002;28;20024;-63
2022/11/28 18:08:49;;;;;;;22.42;12.80;;;8.50;93.70;;;;;;5056102;28;20041;-63
2022/11/28 18:11:16;;;;;;;21.77;12.32;;;8.50;93.80;;;;;;5054399;28;20162;-63
2022/11/28 18:13:43;;;;;;;16.63;10.63;;;8.50;93.70;;;;;;5055094;28;20025;-63
2022/11/28 18:16:10;;;;;;;18.98;10.65;;;8.40;93.70;;;;;;5053705;28;20031;-61
2022/11/28 18:18:36;;;;;;;18.42;11.93;;;8.50;93.90;;;;;;5054126;28;20546;-63
2022/11/28 18:21:05;;;;;;;20.58;12.63;;;8.50;93.90;;;;;;5055538;28;20501;-62
2022/11/28 18:23:31;;;;;;;22.20;12.20;;;8.60;93.80;;;;;;5053467;28;20025;-61
2022/11/28 18:25:57;;;;;;;19.75;12.73;;;8.60;93.80;;;;;;5053710;28;20025;-62
2022/11/28 18:28:23;;;;;;;22.15;12.75;;;8.50;93.80;;;;;;5053277;28;20021;-62
2022/11/28 18:30:48;;;;;;;22.25;13.38;;;8.50;93.80;;;;;;5053381;28;20013;-62
2022/11/28 18:33:15;;;;;;;18.85;12.50;;;8.50;93.90;;;;;;5053164;28;20048;-61
2022/11/28 18:35:41;;;;;;;21.58;13.63;;;8.50;93.90;;;;;;5053726;28;20353;-61
2022/11/28 18:38:07;;;;;;;22.30;14.25;;;8.60;93.90;;;;;;5054643;28;20048;-62
2022/11/28 18:40:35;;;;;;;22.13;13.88;;;8.50;93.90;;;;;;5054078;28;20025;-62
2022/11/28 18:43:01;;;;;;;24.60;14.77;;;8.50;94.00;;;;;;5053524;28;20021;-63
2022/11/28 18:45:27;;;;;;;24.95;14.45;;;8.60;93.90;;;;;;5053166;28;20023;-63
2022/11/28 18:47:53;;;;;;;26.88;15.25;;;8.60;94.00;;;;;;5052180;28;20024;-63
2022/11/28 18:50:18;;;;;;;24.80;15.15;;;8.60;93.90;;;;;;5051793;28;20025;-63
2022/11/28 18:52:44;;;;;;;33.58;15.88;;;8.60;94.00;;;;;;5053386;28;20028;-62
2022/11/28 18:55:10;;;;;;;29.08;17.38;;;8.50;94.00;;;;;;5052987;28;20025;-62
2022/11/28 18:57:36;;;;;;;37.92;18.85;;;8.60;94.00;;;;;;5053145;28;20021;-63
2022/11/28 19:00:04;;;;;;;28.63;17.95;;;8.50;94.20;;;;;;5054160;28;20025;-62
2022/11/28 19:02:31;;;;;;;35.25;18.73;;;8.50;94.20;;;;;;5068228;28;20488;-62
2022/11/28 19:04:57;;;;;;;30.88;17.73;;;8.50;94.30;;;;;;5073572;28;20364;-63
2022/11/28 19:07:23;;;;;;;35.95;19.20;;;8.50;94.40;;;;;;5074752;28;20031;-62
2022/11/28 19:09:48;;;;;;;36.22;20.42;;;8.50;94.40;;;;;;5072788;28;20426;-63
2022/11/28 19:12:14;;;;;;;27.67;14.70;;;8.50;94.50;;;;;;5072994;28;20108;-61
2022/11/28 19:14:40;;;;;;;30.23;18.90;;;8.50;94.40;;;;;;5073073;28;20074;-63
2022/11/28 19:17:07;;;;;;;29.88;17.67;;;8.60;94.60;;;;;;5073063;28;20477;-63
2022/11/28 19:19:34;;;;;;;34.00;18.15;;;8.60;94.60;;;;;;5074297;28;20460;-63
2022/11/28 19:22:01;;;;;;;31.77;18.42;;;8.50;94.50;;;;;;5072900;28;20385;-63
2022/11/28 19:24:26;;;;;;;29.27;18.02;;;8.50;94.60;;;;;;5073283;28;20084;-63
2022/11/28 19:26:52;;;;;;;35.33;18.92;;;8.50;94.60;;;;;;5073196;28;20052;-62
2022/11/28 19:29:18;;;;;;;36.58;17.92;;;8.60;94.60;;;;;;5073144;28;20028;-62
2022/11/28 19:31:43;;;;;;;33.42;19.13;;;8.60;94.70;;;;;;5073260;28;20028;-62
2022/11/28 19:34:16;;;;;;;34.00;17.10;;;8.60;94.60;;;;;;5073113;28;20423;-60
2022/11/28 19:36:46;;;;;;;32.88;17.70;;;8.50;94.70;;;;;;5073220;28;20033;-61
2022/11/28 19:39:21;;;;;;;34.53;18.67;;;8.70;94.70;;;;;;5054809;28;20024;-63
2022/11/28 19:41:47;;;;;;;31.27;17.92;;;8.70;94.70;;;;;;5073362;28;20036;-64
2022/11/28 19:44:14;;;;;;;32.30;17.75;;;8.70;94.80;;;;;;5054956;28;20016;-63
2022/11/28 19:46:40;;;;;;;29.98;17.85;;;8.70;94.80;;;;;;5072844;28;20051;-62
2022/11/28 19:49:11;;;;;;;28.35;16.90;;;8.70;94.70;;;;;;5075116;28;20533;-62
2022/11/28 19:51:37;;;;;;;34.00;19.20;;;8.70;94.70;;;;;;5076769;28;20021;-61
2022/11/28 19:54:03;;;;;;;30.70;18.08;;;8.70;94.70;;;;;;5058689;28;20469;-61
2022/11/28 19:56:28;;;;;;;34.97;20.60;;;8.80;94.80;;;;;;5076326;28;20039;-61
2022/11/28 19:58:54;;;;;;;31.27;17.33;;;8.80;94.70;;;;;;5076862;28;20060;-62
2022/11/28 20:01:22;;;;;;;30.98;17.42;;;8.80;94.70;;;;;;5076710;28;20044;-64
2022/11/28 20:03:49;;;;;;;30.20;16.95;;;8.70;94.70;;;;;;5077195;28;20460;-64
2022/11/28 20:06:24;;;;;;;35.35;18.70;;;8.70;94.60;;;;;;5076623;28;20024;-62
2022/11/28 20:08:51;;;;;;;31.90;17.95;;;8.70;94.70;;;;;;5076357;28;20028;-62
2022/11/28 20:11:21;;;;;;;29.38;18.45;;;8.70;94.70;;;;;;5076424;28;20067;-62
2022/11/28 20:13:46;;;;;;;27.90;17.73;;;8.70;94.80;;;;;;5076052;28;20036;-62
2022/11/28 20:16:15;;;;;;;35.08;17.42;;;8.60;94.80;;;;;;5076255;28;20025;-62
2022/11/28 20:18:42;;;;;;;30.50;17.58;;;8.70;94.80;;;;;;5075918;28;20135;-62
2022/11/28 20:21:14;;;;;;;29.40;17.10;;;8.80;94.90;;;;;;5075716;28;20087;-62
2022/11/28 20:23:44;;;;;;;33.67;19.27;;;8.80;94.90;;;;;;5076686;28;20111;-61
2022/11/28 20:26:11;;;;;;;32.42;19.25;;;8.80;94.80;;;;;;5076286;28;20029;-63
2022/11/28 20:28:39;;;;;;;30.52;16.88;;;8.90;94.70;;;;;;5075947;28;20020;-63
2022/11/28 20:31:05;;;;;;;28.52;17.77;;;8.80;94.70;;;;;;5076191;28;20021;-61
2022/11/28 20:33:31;;;;;;;30.55;18.95;;;8.80;94.60;;;;;;5076741;28;20491;-62
2022/11/28 20:36:08;;;;;;;30.92;18.00;;;8.80;94.70;;;;;;5058591;28;20040;-62
2022/11/28 20:38:34;;;;;;;34.97;18.23;;;8.80;94.80;;;;;;5075841;28;20031;-62
2022/11/28 20:41:02;;;;;;;30.67;17.13;;;8.80;94.80;;;;;;5075881;28;20012;-64
2022/11/28 20:43:29;;;;;;;30.77;19.02;;;8.80;94.80;;;;;;5075862;28;20104;-62
2022/11/28 20:45:59;;;;;;;29.63;18.20;;;8.80;94.80;;;;;;5075812;28;20023;-62
2022/11/28 20:48:26;;;;;;;33.60;18.33;;;8.80;94.90;;;;;;5057670;28;20028;-62
2022/11/28 20:50:51;;;;;;;32.30;17.05;;;8.90;95.00;;;;;;5057439;28;20033;-62
2022/11/28 20:53:17;;;;;;;28.92;18.10;;;8.90;94.90;;;;;;5075338;28;20537;-62
2022/11/28 20:55:43;;;;;;;28.80;16.35;;;8.80;94.80;;;;;;5075353;28;20032;-63
2022/11/28 20:58:08;;;;;;;33.65;18.60;;;8.80;94.80;;;;;;5075098;28;20500;-62
2022/11/28 21:00:34;;;;;;;31.42;18.13;;;8.90;94.80;;;;;;5075387;28;20185;-63
